Time;durP1;ratioP1;P1;durP2;ratioP2;P2;SDS_P1;SDS_P2;PMS_P1;PMS_P2;Temp;Humidity;BMP_temperature;BMP_pressure;BME280_temperature;BME280_humidity;BME280_pressure;Samples;Min_cycle;Max_cycle;Signal;HPM_P1;HPM_P2
2022/09/21 00:06:01;;;;;;;10.07;4.38;;;;;;;10.96;65.63;102725.72;5107089;28;20049;-45
2022/09/21 00:12:20;;;;;;;8.60;4.95;;;;;;;11.00;65.77;102733.34;5100820;28;20440;-45
2022/09/21 00:14:53;;;;;;;11.57;5.10;;;;;;;10.98;65.80;102740.53;5107189;28;20050;-38
2022/09/21 00:25:02;;;;;;;11.63;4.40;;;;;;;11.04;65.76;102740.09;5105165;28;20050;-45
2022/09/21 00:27:35;;;;;;;9.80;4.35;;;;;;;11.06;65.79;102738.19;5110346;28;20050;-45
2022/09/21 00:31:03;;;;;;;;;;;;;;;10.91;65.74;102712.81;5088829;28;20039;-43
2022/09/21 00:33:36;;;;;;;7.68;4.95;;;;;;;11.14;65.47;102736.81;5097163;28;20445;-45
2022/09/21 00:36:11;;;;;;;8.25;3.72;;;;;;;11.19;65.72;102748.75;5102062;28;20058;-46
2022/09/21 00:38:46;;;;;;;11.15;5.15;;;;;;;11.24;65.79;102746.66;5107572;28;20050;-49
2022/09/21 00:41:20;;;;;;;7.57;4.38;;;;;;;11.22;65.68;102742.44;5106011;28;20038;-47
2022/09/21 00:44:24;;;;;;;8.85;4.45;;;;;;;11.32;65.57;102740.81;5114467;28;20446;-45
2022/09/21 00:47:03;;;;;;;6.57;3.58;;;;;;;11.34;65.64;102746.00;5104740;28;20133;-49
2022/09/21 00:49:36;;;;;;;15.75;5.45;;;;;;;11.25;65.56;102731.63;5109593;28;20093;-47
2022/09/21 00:52:11;;;;;;;9.07;3.78;;;;;;;11.34;65.68;102740.72;5106960;28;20154;-48
2022/09/21 00:54:50;;;;;;;10.82;4.07;;;;;;;11.44;65.41;102752.34;5101432;28;20406;-48
2022/09/21 00:57:29;;;;;;;9.38;3.67;;;;;;;11.43;65.47;102746.22;5105904;28;20449;-46
2022/09/21 01:00:08;;;;;;;8.13;4.65;;;;;;;11.50;65.66;102752.75;5100145;28;20987;-46
2022/09/21 01:02:41;;;;;;;8.80;3.88;;;;;;;11.52;65.52;102753.50;5110821;28;20166;-44
2022/09/21 01:05:14;;;;;;;7.03;3.50;;;;;;;11.54;65.50;102743.63;5113427;28;20066;-46
2022/09/21 01:07:49;;;;;;;5.43;3.30;;;;;;;11.49;65.45;102740.47;5107545;28;20070;-46
2022/09/21 01:10:24;;;;;;;6.97;4.18;;;;;;;11.51;65.41;102737.72;5080113;28;20438;-46
2022/09/21 01:13:09;;;;;;;7.43;4.00;;;;;;;11.61;65.48;102748.47;5104581;28;20433;-47
2022/09/21 01:15:50;;;;;;;7.18;3.80;;;;;;;11.53;65.45;102731.34;5101636;28;20510;-47
2022/09/21 01:18:35;;;;;;;6.53;4.18;;;;;;;11.52;65.48;102737.63;5100779;28;20254;-40
2022/09/21 01:21:22;;;;;;;9.95;3.85;;;;;;;11.58;65.36;102740.75;5103480;28;20057;-44
2022/09/21 01:24:20;;;;;;;14.63;4.20;;;;;;;11.58;65.47;102743.41;5099738;28;20400;-50
2022/09/21 01:27:43;;;;;;;8.02;3.92;;;;;;;11.56;65.60;102745.34;5074290;28;20693;-46
2022/09/21 01:30:19;;;;;;;8.73;4.07;;;;;;;11.50;65.71;102736.03;5099370;28;20077;-49
2022/09/21 01:32:57;;;;;;;6.47;3.35;;;;;;;11.48;65.67;102738.75;5101127;28;20356;-48
2022/09/21 01:35:34;;;;;;;8.07;3.90;;;;;;;11.47;65.63;102729.16;5110769;28;20056;-46
2022/09/21 01:38:11;;;;;;;9.63;3.85;;;;;;;11.50;65.67;102744.81;5104138;28;20049;-44
2022/09/21 01:44:33;;;;;;;6.13;4.03;;;;;;;11.35;65.78;102729.19;5109259;28;20125;-45
2022/09/21 01:47:12;;;;;;;6.82;4.20;;;;;;;11.32;65.92;102736.38;5100976;28;20495;-46
2022/09/21 01:49:50;;;;;;;11.13;4.07;;;;;;;11.38;65.67;102740.38;5097470;28;20449;-44
2022/09/21 01:52:30;;;;;;;8.25;3.60;;;;;;;11.25;65.80;102726.34;5105894;28;20507;-44
2022/09/21 01:55:09;;;;;;;6.32;4.10;;;;;;;11.34;65.90;102741.56;5098463;28;20097;-46
2022/09/21 01:57:52;;;;;;;13.30;3.22;;;;;;;11.19;65.96;102726.78;5098759;28;20343;-48
2022/09/21 02:00:26;;;;;;;10.55;4.38;;;;;;;11.20;66.09;102734.59;5104806;28;20085;-48
2022/09/21 02:03:05;;;;;;;14.35;4.35;;;;;;;11.18;66.12;102740.94;5108840;28;20241;-48
2022/09/21 02:05:39;;;;;;;7.47;3.97;;;;;;;11.18;65.95;102746.22;5104334;28;20137;-37
2022/09/21 02:08:12;;;;;;;10.13;3.85;;;;;;;11.20;65.95;102741.69;5100079;28;20050;-50
2022/09/21 02:10:47;;;;;;;;;;;;;;;11.26;66.13;102755.31;5098434;28;20077;-52
2022/09/21 02:13:24;;;;;;;8.00;3.55;;;;;;;11.18;66.00;102748.84;5109118;28;20065;-46
2022/09/21 02:16:13;;;;;;;9.85;3.50;;;;;;;11.19;66.18;102754.06;5104499;28;20487;-44
2022/09/21 02:18:59;;;;;;;10.07;4.38;;;;;;;11.10;66.11;102740.63;5097684;28;20336;-49
2022/09/21 02:21:39;;;;;;;8.93;4.82;;;;;;;11.13;66.07;102743.06;5097544;28;20038;-47
2022/09/21 02:24:20;;;;;;;6.72;3.42;;;;;;;11.10;66.42;102744.13;5103953;28;20053;-47
2022/09/21 02:27:01;;;;;;;10.00;3.83;;;;;;;11.01;66.22;102750.88;5106116;28;20232;-44
2022/09/21 02:29:46;;;;;;;11.68;3.83;;;;;;;11.04;66.23;102758.59;5106302;28;20390;-47
2022/09/21 02:32:34;;;;;;;7.60;3.85;;;;;;;10.91;66.28;102739.25;5102955;28;20050;-42
2022/09/21 02:35:17;;;;;;;8.07;3.53;;;;;;;10.95;66.59;102746.03;5109286;28;20438;-49
2022/09/21 02:37:55;;;;;;;8.18;2.78;;;;;;;10.87;66.55;102737.78;5101534;28;20450;-46
2022/09/21 02:40:35;;;;;;;9.25;3.55;;;;;;;10.88;66.57;102750.03;5104439;28;22432;-44
2022/09/21 02:43:15;;;;;;;12.45;4.07;;;;;;;10.78;66.61;102735.78;5104710;28;20042;-43
2022/09/21 02:45:53;;;;;;;11.32;3.70;;;;;;;10.68;66.67;102727.59;5098238;28;20755;-42
2022/09/21 02:48:33;;;;;;;8.25;3.58;;;;;;;10.58;66.77;102722.09;5102948;28;20391;-43
2022/09/21 02:51:12;;;;;;;10.55;3.65;;;;;;;10.63;66.80;102734.16;5101527;28;20511;-45
2022/09/21 02:53:48;;;;;;;9.48;4.00;;;;;;;10.49;66.88;102711.31;5096327;28;20065;-46
2022/09/21 02:56:21;;;;;;;8.07;3.40;;;;;;;10.49;66.86;102717.44;5105547;28;20383;-42
2022/09/21 02:58:58;;;;;;;11.88;3.72;;;;;;;10.53;67.00;102740.06;5102651;28;20069;-47
2022/09/21 03:01:32;;;;;;;9.38;3.75;;;;;;;10.48;67.01;102736.88;5106081;28;20482;-44
2022/09/21 03:04:05;;;;;;;5.57;3.38;;;;;;;10.38;67.20;102727.88;5113028;28;20042;-43
2022/09/21 03:06:40;;;;;;;13.13;4.00;;;;;;;10.40;67.05;102736.53;5109108;28;20053;-47
2022/09/21 03:09:12;;;;;;;5.25;3.30;;;;;;;10.28;67.15;102726.78;5100287;28;20519;-45
2022/09/21 03:11:45;;;;;;;5.80;3.33;;;;;;;10.28;67.25;102734.69;5103193;28;20414;-43
2022/09/21 03:14:18;;;;;;;7.85;3.80;;;;;;;10.32;67.09;102746.78;5104764;28;20133;-41
2022/09/21 03:16:50;;;;;;;10.25;3.40;;;;;;;10.25;67.22;102740.16;5107741;28;20050;-45
2022/09/21 03:19:23;;;;;;;9.80;3.35;;;;;;;10.26;67.58;102739.22;5112551;28;20085;-45
2022/09/21 03:22:17;;;;;;;5.95;3.80;;;;;;;10.12;67.35;102724.28;5115063;28;20069;-47
2022/09/21 03:24:49;;;;;;;12.65;4.00;;;;;;;10.12;67.40;102740.97;5104114;28;20207;-43
2022/09/21 03:27:23;;;;;;;8.93;4.07;;;;;;;10.06;67.44;102737.88;5103507;28;20047;-42
2022/09/21 03:29:55;;;;;;;11.13;3.70;;;;;;;10.00;67.33;102736.47;5114602;28;22094;-44
2022/09/21 03:32:28;;;;;;;6.85;4.25;;;;;;;9.99;67.54;102740.06;5106101;28;20049;-48
2022/09/21 03:35:00;;;;;;;12.98;3.53;;;;;;;9.95;67.69;102746.50;5102690;28;20443;-44
2022/09/21 03:37:34;;;;;;;8.02;4.47;;;;;;;9.96;67.83;102750.81;5105420;28;20096;-45
2022/09/21 03:40:08;;;;;;;7.00;4.70;;;;;;;9.82;67.68;102740.31;5111479;28;20592;-46
2022/09/21 03:42:42;;;;;;;11.77;3.78;;;;;;;9.88;67.75;102753.97;5096970;28;20052;-41
2022/09/21 03:45:14;;;;;;;10.77;4.53;;;;;;;9.81;67.71;102742.09;5112819;28;20480;-47
2022/09/21 03:47:47;;;;;;;12.70;4.25;;;;;;;9.82;67.76;102753.53;5105600;28;20042;-44
2022/09/21 03:50:20;;;;;;;10.90;4.70;;;;;;;9.83;68.01;102757.84;5108893;28;20543;-46
2022/09/21 03:52:54;;;;;;;10.95;3.78;;;;;;;9.75;67.82;102747.75;5108813;28;20050;-46
2022/09/21 03:55:28;;;;;;;9.60;4.93;;;;;;;9.81;67.98;102765.00;5106205;28;20527;-44
2022/09/21 03:58:01;;;;;;;6.40;4.25;;;;;;;9.76;67.83;102751.28;5104282;28;20130;-43
2022/09/21 04:00:34;;;;;;;9.75;5.63;;;;;;;9.76;67.87;102759.19;5105319;28;20551;-43
2022/09/21 04:03:07;;;;;;;;;;;;;;;9.73;67.97;102762.03;5108145;28;20065;-44
2022/09/21 04:05:39;;;;;;;9.53;4.80;;;;;;;9.60;67.93;102744.31;5099379;28;19926;-40
2022/09/21 04:08:13;;;;;;;15.88;5.65;;;;;;;9.63;68.03;102757.31;5104093;28;20298;-45
2022/09/21 04:10:46;;;;;;;13.13;5.45;;;;;;;9.57;68.13;102747.16;5106409;28;20065;-44
2022/09/21 04:13:35;;;;;;;18.63;4.82;;;;;;;9.57;68.12;102748.94;5104471;28;20117;-42
2022/09/21 04:16:08;;;;;;;13.93;6.15;;;;;;;9.56;68.28;102750.72;5106595;28;20133;-43
2022/09/21 04:18:40;;;;;;;16.23;5.10;;;;;;;9.51;68.06;102749.31;5103112;28;20468;-48
2022/09/21 04:21:13;;;;;;;5.68;4.28;;;;;;;9.47;68.10;102746.84;5103111;28;20050;-45
2022/09/21 04:23:48;;;;;;;13.40;5.00;;;;;;;9.51;68.32;102752.81;5104125;28;20045;-43
2022/09/21 04:26:24;;;;;;;8.02;4.45;;;;;;;9.41;68.30;102738.50;5106830;28;20134;-46
2022/09/21 04:28:57;;;;;;;20.02;4.95;;;;;;;9.39;68.24;102740.41;5108552;28;20049;-47
2022/09/21 04:31:30;;;;;;;8.63;4.38;;;;;;;9.45;68.29;102750.56;5096737;28;20058;-42
2022/09/21 04:34:03;;;;;;;12.95;4.97;;;;;;;9.44;68.36;102746.22;5102963;28;20072;-42
2022/09/21 04:36:35;;;;;;;5.85;4.22;;;;;;;9.40;68.23;102753.47;5117568;28;20370;-46
2022/09/21 04:39:10;;;;;;;17.13;6.35;;;;;;;9.43;68.37;102755.06;5095611;28;20328;-45
2022/09/21 04:41:42;;;;;;;10.00;3.67;;;;;;;9.44;68.32;102754.97;5089490;28;20047;-45
2022/09/21 04:44:15;;;;;;;11.25;4.55;;;;;;;9.39;68.33;102740.41;5104300;28;20426;-43
2022/09/21 04:46:47;;;;;;;7.10;3.67;;;;;;;9.42;68.28;102740.19;5115594;28;20074;-45
2022/09/21 04:49:20;;;;;;;6.47;3.63;;;;;;;9.49;68.21;102749.41;5118272;28;20497;-44
2022/09/21 04:51:53;;;;;;;8.00;3.92;;;;;;;9.47;68.16;102743.38;5113181;28;20112;-48
2022/09/21 04:54:27;;;;;;;6.40;3.88;;;;;;;9.51;68.27;102750.19;5099735;28;20039;-46
2022/09/21 04:57:00;;;;;;;9.93;3.28;;;;;;;9.57;68.38;102755.06;5111263;28;20399;-44
2022/09/21 04:59:32;;;;;;;9.20;4.18;;;;;;;9.44;68.25;102733.88;5104053;28;20595;-44
2022/09/21 05:02:05;;;;;;;10.15;5.35;;;;;;;9.56;68.35;102756.00;5109641;28;20051;-46
2022/09/21 05:04:38;;;;;;;14.25;4.57;;;;;;;9.52;68.45;102740.47;5115163;28;20130;-46
2022/09/21 05:07:11;;;;;;;11.73;3.75;;;;;;;9.51;68.32;102744.91;5110347;28;20503;-48
2022/09/21 05:10:03;;;;;;;12.35;4.32;;;;;;;9.59;68.14;102758.44;5115794;28;20375;-44
2022/09/21 05:12:36;;;;;;;8.43;3.53;;;;;;;9.58;68.29;102751.47;5110180;28;20418;-46
2022/09/21 05:15:10;;;;;;;5.88;4.05;;;;;;;9.63;68.14;102752.03;5120101;28;20057;-38
2022/09/21 05:17:43;;;;;;;8.73;4.10;;;;;;;9.61;68.06;102745.16;5116294;28;20419;-46
2022/09/21 05:20:15;;;;;;;24.65;5.20;;;;;;;9.68;68.12;102762.28;5122061;28;20072;-50
2022/09/21 05:22:48;;;;;;;12.35;4.88;;;;;;;9.68;68.00;102757.03;5101373;28;20046;-46
2022/09/21 05:25:22;;;;;;;15.90;5.32;;;;;;;9.73;68.04;102748.84;5097112;28;20066;-44
2022/09/21 05:27:55;;;;;;;11.75;4.82;;;;;;;9.76;67.91;102754.75;5112786;28;20053;-45
2022/09/21 05:30:28;;;;;;;9.23;3.72;;;;;;;9.81;67.99;102755.28;5098182;28;20412;-41
2022/09/21 05:33:04;;;;;;;10.60;5.20;;;;;;;9.85;67.78;102755.97;5096911;28;20038;-45
2022/09/21 05:35:42;;;;;;;11.60;4.30;;;;;;;9.97;67.76;102763.06;5108886;28;20043;-44
2022/09/21 05:38:19;;;;;;;12.95;5.55;;;;;;;10.08;67.39;102768.50;5091529;28;20057;-41
2022/09/21 05:40:54;;;;;;;12.07;6.03;;;;;;;10.06;67.42;102753.72;5095666;28;20310;-44
2022/09/21 05:43:27;;;;;;;10.48;4.40;;;;;;;10.18;67.39;102765.28;5094325;28;20415;-43
2022/09/21 05:46:06;;;;;;;11.55;4.43;;;;;;;10.34;67.59;102771.28;5082647;28;20073;-43
2022/09/21 05:48:42;;;;;;;18.10;5.10;;;;;;;10.38;67.31;102762.22;5094049;28;20388;-45
2022/09/21 05:51:27;;;;;;;13.32;5.88;;;;;;;10.51;67.15;102760.44;5094947;28;20503;-46
2022/09/21 05:54:07;;;;;;;16.88;6.30;;;;;;;10.69;67.01;102771.59;5091750;28;20415;-43
2022/09/21 05:56:48;;;;;;;10.52;5.43;;;;;;;10.83;66.84;102765.34;5093878;28;20055;-43
2022/09/21 05:59:48;;;;;;;11.30;4.75;;;;;;;10.98;66.75;102766.97;5117188;28;20062;-44
2022/09/21 06:02:35;;;;;;;9.88;4.13;;;;;;;11.07;66.71;102763.69;5101447;28;20443;-44
2022/09/21 06:05:12;;;;;;;7.57;4.47;;;;;;;11.19;66.51;102754.06;5121730;28;20406;-43
2022/09/21 06:07:44;;;;;;;7.10;4.43;;;;;;;11.29;66.38;102748.97;5118052;28;20053;-44
2022/09/21 06:10:17;;;;;;;11.63;5.10;;;;;;;11.44;66.42;102768.22;5111522;28;20046;-47
2022/09/21 06:12:51;;;;;;;;;;;;;;;11.59;66.33;102771.59;5107271;28;20430;-45
2022/09/21 06:15:23;;;;;;;;;;;;;;;11.66;66.25;102764.88;5104227;28;19921;-47
2022/09/21 06:17:57;;;;;;;8.55;4.63;;;;;;;11.63;66.39;102768.59;5107452;28;19929;-46
2022/09/21 06:20:30;;;;;;;9.00;4.30;;;;;;;11.70;66.33;102758.41;5115342;28;20066;-48
2022/09/21 06:23:03;;;;;;;12.35;5.00;;;;;;;11.77;66.24;102767.63;5115503;28;20387;-47
2022/09/21 06:25:36;;;;;;;11.27;3.90;;;;;;;11.80;66.27;102767.41;5118612;28;20383;-42
2022/09/21 06:28:12;;;;;;;6.47;3.85;;;;;;;11.80;66.17;102759.47;5117389;28;20388;-44
2022/09/21 06:30:50;;;;;;;9.52;5.07;;;;;;;11.86;66.15;102768.75;5108248;28;20169;-43
2022/09/21 06:33:23;;;;;;;10.82;5.38;;;;;;;11.90;66.16;102755.22;5116293;28;20478;-45
2022/09/21 06:35:56;;;;;;;;;;;;;;;12.00;66.04;102772.09;5113835;28;20042;-44
2022/09/21 06:38:29;;;;;;;10.45;4.80;;;;;;;12.00;66.23;102761.50;5117530;28;20287;-45
2022/09/21 06:41:03;;;;;;;13.88;5.10;;;;;;;12.22;66.02;102766.06;5111764;28;20411;-45
2022/09/21 06:43:38;;;;;;;10.60;4.00;;;;;;;13.57;65.80;102765.53;5113809;28;20061;-47
2022/09/21 06:46:11;;;;;;;9.38;4.43;;;;;;;15.76;63.75;102771.00;5118833;28;20042;-43
2022/09/21 06:48:43;;;;;;;11.40;5.72;;;;;;;18.04;60.91;102769.25;5112666;28;20494;-46
2022/09/21 06:51:16;;;;;;;35.30;18.73;;;;;;;20.17;58.27;102764.13;5114781;28;20059;-45
2022/09/21 06:53:48;;;;;;;24.35;15.10;;;;;;;22.24;55.56;102766.88;5123573;28;20441;-47
2022/09/21 06:56:21;;;;;;;22.42;14.10;;;;;;;24.01;53.43;102752.53;5114437;28;20054;-51
2022/09/21 06:58:56;;;;;;;25.05;13.07;;;;;;;25.63;51.73;102757.78;5110526;28;20050;-47
2022/09/21 07:01:30;;;;;;;14.05;9.05;;;;;;;26.95;50.54;102758.91;5111725;28;20510;-45
2022/09/21 07:04:03;;;;;;;26.25;11.93;;;;;;;28.17;48.99;102759.78;5113301;28;20076;-47
2022/09/21 07:06:36;;;;;;;23.85;7.13;;;;;;;29.20;47.24;102763.81;5112394;28;20054;-45
2022/09/21 07:09:08;;;;;;;20.13;8.93;;;;;;;30.05;45.70;102766.44;5114074;28;20073;-48
2022/09/21 07:11:41;;;;;;;;;;;;;;;30.91;44.52;102774.19;5110275;28;20054;-44
2022/09/21 07:14:14;;;;;;;19.42;6.10;;;;;;;31.53;43.48;102765.38;5111150;28;19957;-47
2022/09/21 07:16:47;;;;;;;14.75;3.25;;;;;;;32.17;42.07;102776.91;5113876;28;20362;-52
2022/09/21 07:19:20;;;;;;;13.15;3.20;;;;;;;32.46;40.96;102772.22;5111561;28;20050;-48
2022/09/21 07:21:54;;;;;;;;;;;;;;;32.95;40.23;102777.84;5106937;28;20050;-48
2022/09/21 07:24:26;;;;;;;8.90;3.03;;;;;;;33.57;38.76;102779.41;5099685;28;19944;-47
2022/09/21 07:26:59;;;;;;;;;;;;;;;34.00;38.02;102782.28;5106923;28;22457;-49
2022/09/21 07:29:33;;;;;;;7.35;2.13;;;;;;;34.24;37.41;102766.31;5107618;28;20247;-47
2022/09/21 07:32:05;;;;;;;8.60;2.97;;;;;;;34.39;36.25;102769.19;5109469;28;20042;-49
2022/09/21 07:34:38;;;;;;;10.00;2.20;;;;;;;34.64;35.22;102771.28;5108474;28;20038;-48
2022/09/21 07:37:11;;;;;;;11.02;3.75;;;;;;;35.11;34.32;102779.47;5105697;28;20569;-47
2022/09/21 07:39:43;;;;;;;14.15;2.63;;;;;;;35.47;33.43;102773.28;5106353;28;20299;-51
2022/09/21 07:42:16;;;;;;;13.63;3.08;;;;;;;35.58;32.74;102774.94;5113588;28;20046;-49
2022/09/21 07:44:52;;;;;;;10.48;2.50;;;;;;;35.75;32.12;102769.22;5112084;28;20431;-47
2022/09/21 07:47:27;;;;;;;6.47;2.30;;;;;;;35.88;31.74;102776.09;5111725;28;20401;-53
2022/09/21 07:49:59;;;;;;;8.80;3.15;;;;;;;36.07;31.11;102774.47;5109690;28;22565;-49
2022/09/21 07:52:32;;;;;;;14.98;2.60;;;;;;;36.24;30.26;102761.25;5113099;28;20125;-51
2022/09/21 07:55:06;;;;;;;10.35;3.00;;;;;;;35.91;29.83;102759.88;5109794;28;20062;-51
2022/09/21 08:00:31;;;;;;;13.75;3.58;;;;;;;35.87;29.12;102774.44;5099394;28;20393;-50
2022/09/21 08:03:04;;;;;;;13.65;2.15;;;;;;;35.84;28.75;102772.25;5105883;28;20065;-50
2022/09/21 08:05:36;;;;;;;13.98;3.63;;;;;;;35.55;28.58;102772.75;5094318;28;20465;-48
2022/09/21 08:08:09;;;;;;;7.70;2.17;;;;;;;35.55;28.10;102770.84;5108235;28;20185;-38
2022/09/21 08:10:41;;;;;;;7.97;1.77;;;;;;;35.70;27.84;102771.94;5095046;28;20047;-50
2022/09/21 08:13:14;;;;;;;7.68;1.30;;;;;;;35.71;27.59;102760.69;5098259;28;20047;-52
2022/09/21 08:15:57;;;;;;;9.52;2.17;;;;;;;35.94;27.15;102766.75;5115294;28;20043;-48
2022/09/21 08:18:30;;;;;;;17.80;2.70;;;;;;;36.02;26.88;102768.94;5096610;28;20413;-50
2022/09/21 08:21:02;;;;;;;7.00;1.92;;;;;;;35.77;26.80;102772.50;5095337;28;20129;-51
2022/09/21 08:23:38;;;;;;;16.05;2.63;;;;;;;35.58;26.80;102783.19;5112042;28;20053;-51
2022/09/21 08:26:17;;;;;;;12.15;1.88;;;;;;;35.24;26.50;102778.13;5117478;28;20494;-48
2022/09/21 08:28:53;;;;;;;7.05;1.65;;;;;;;35.17;26.50;102769.34;5115537;28;20488;-49
2022/09/21 08:31:28;;;;;;;11.82;2.17;;;;;;;35.29;26.06;102782.84;5114073;28;20659;-50
2022/09/21 08:34:01;;;;;;;5.25;1.73;;;;;;;35.37;25.89;102773.22;5111757;28;20407;-50
2022/09/21 08:36:34;;;;;;;7.05;1.50;;;;;;;35.47;25.88;102778.78;5112835;28;20046;-49
2022/09/21 08:39:08;;;;;;;10.15;1.70;;;;;;;35.32;25.75;102785.03;5115483;28;20057;-52
2022/09/21 08:42:08;;;;;;;4.43;1.38;;;;;;;34.80;25.90;102775.75;5109813;28;20046;-52
2022/09/21 08:44:47;;;;;;;6.10;1.73;;;;;;;34.23;26.25;102775.66;5114465;28;20479;-53
2022/09/21 08:47:28;;;;;;;7.95;1.80;;;;;;;33.85;26.32;102785.72;5102547;28;20054;-50
2022/09/21 08:50:03;;;;;;;10.15;2.13;;;;;;;33.56;26.63;102771.47;5109279;28;20055;-49
2022/09/21 08:52:37;;;;;;;6.03;2.05;;;;;;;33.57;26.38;102784.06;5116365;28;20174;-49
2022/09/21 08:55:18;;;;;;;6.55;1.83;;;;;;;33.43;26.14;102776.22;5114806;28;20050;-40
2022/09/21 08:57:51;;;;;;;9.57;2.00;;;;;;;33.19;26.24;102786.63;5130497;28;20434;-50
2022/09/21 09:00:24;;;;;;;15.88;3.80;;;;;;;32.69;26.33;102789.50;5124531;28;20519;-47
2022/09/21 09:03:32;;;;;;;9.40;1.95;;;;;;;32.30;26.50;102795.75;5126714;28;20073;-49
2022/09/21 09:06:13;;;;;;;12.60;2.38;;;;;;;31.91;26.68;102786.59;5115953;28;20089;-48
2022/09/21 09:09:15;;;;;;;6.20;1.60;;;;;;;31.35;26.78;102780.06;5102285;28;20046;-50
2022/09/21 09:12:04;;;;;;;10.95;2.70;;;;;;;31.03;26.67;102788.66;5102840;28;20479;-50
2022/09/21 09:14:59;;;;;;;6.43;1.67;;;;;;;30.68;27.03;102786.75;5101159;28;20038;-48
2022/09/21 09:17:45;;;;;;;8.10;1.77;;;;;;;30.25;26.71;102789.81;5103946;28;20050;-50
2022/09/21 09:20:21;;;;;;;6.35;2.00;;;;;;;29.97;26.98;102785.81;5096261;28;20435;-49
2022/09/21 09:23:07;;;;;;;10.48;2.25;;;;;;;29.42;27.15;102770.47;5103457;28;20082;-52
2022/09/21 09:29:31;;;;;;;5.68;1.83;;;;;;;27.67;28.26;102797.69;5106547;28;20101;-50
2022/09/21 09:32:05;;;;;;;5.18;1.75;;;;;;;26.94;28.79;102795.19;5102523;28;20426;-49
2022/09/21 09:34:44;;;;;;;15.57;2.42;;;;;;;26.19;29.65;102787.28;5102925;28;20042;-49
2022/09/21 09:37:19;;;;;;;4.57;1.52;;;;;;;25.41;30.57;102792.25;5097533;28;20615;-49
2022/09/21 09:40:12;;;;;;;5.78;1.77;;;;;;;24.74;31.58;102796.38;5107986;28;20069;-53
2022/09/21 09:42:58;;;;;;;8.35;1.80;;;;;;;24.30;31.82;102783.94;5100695;28;20533;-49
2022/09/21 09:45:57;;;;;;;6.82;1.80;;;;;;;24.04;32.29;102789.13;5102339;28;20146;-52
2022/09/21 09:48:55;;;;;;;10.13;1.98;;;;;;;23.74;32.82;102788.38;5102805;28;20502;-52
2022/09/21 09:51:27;;;;;;;12.68;2.55;;;;;;;23.54;32.88;102780.03;5105486;28;20042;-50
2022/09/21 09:54:02;;;;;;;9.70;1.20;;;;;;;23.38;33.43;102794.53;5102962;28;20046;-50
2022/09/21 09:56:35;;;;;;;5.80;1.58;;;;;;;23.32;33.58;102790.75;5104172;28;20490;-49
2022/09/21 09:59:19;;;;;;;9.25;2.92;;;;;;;23.19;33.63;102779.75;5104470;28;20050;-49
2022/09/21 10:02:02;;;;;;;4.68;1.38;;;;;;;23.20;33.55;102776.06;5098229;28;20047;-49
2022/09/21 10:04:35;;;;;;;4.10;1.25;;;;;;;23.26;33.66;102783.41;5097199;28;20066;-50
2022/09/21 10:07:18;;;;;;;4.78;1.52;;;;;;;23.14;33.78;102782.19;5102188;28;20526;-50
2022/09/21 10:09:52;;;;;;;7.45;1.77;;;;;;;23.24;33.85;102777.34;5100988;28;20426;-55
2022/09/21 10:12:26;;;;;;;13.40;1.67;;;;;;;23.35;34.02;102784.09;5098711;28;20077;-48
2022/09/21 10:15:00;;;;;;;5.18;1.42;;;;;;;23.38;34.04;102786.44;5100850;28;20607;-52
2022/09/21 10:17:32;;;;;;;13.27;2.15;;;;;;;23.27;33.91;102785.06;5106252;28;20046;-50
2022/09/21 10:20:15;;;;;;;6.32;1.58;;;;;;;23.16;34.12;102801.69;5098910;28;20542;-50
2022/09/21 10:22:53;;;;;;;4.80;1.45;;;;;;;22.70;34.40;102769.47;5096381;28;20491;-48
2022/09/21 10:25:27;;;;;;;2.85;1.25;;;;;;;22.54;34.55;102774.00;5099277;28;20051;-53
2022/09/21 10:28:01;;;;;;;10.10;1.50;;;;;;;22.47;35.27;102785.69;5104580;28;20080;-52
2022/09/21 10:30:37;;;;;;;5.63;1.52;;;;;;;22.31;35.43;102782.09;5101122;28;20059;-49
2022/09/21 10:33:21;;;;;;;6.80;1.00;;;;;;;22.13;35.49;102778.00;5097841;28;20482;-41
2022/09/21 10:35:55;;;;;;;6.50;1.52;;;;;;;21.94;35.97;102772.09;5098043;28;20073;-50
2022/09/21 10:38:28;;;;;;;4.20;1.20;;;;;;;21.82;35.89;102770.81;5102291;28;20038;-46
2022/09/21 10:41:02;;;;;;;13.00;2.53;;;;;;;21.70;36.18;102773.06;5106947;28;20042;-49
2022/09/21 10:43:42;;;;;;;10.73;1.60;;;;;;;21.51;36.01;102768.13;5103975;28;20423;-53
2022/09/21 10:46:15;;;;;;;9.82;2.20;;;;;;;21.34;36.60;102767.34;5110298;28;20054;-50
2022/09/21 10:48:47;;;;;;;5.75;1.00;;;;;;;21.47;36.30;102772.19;5101250;28;20042;-51
2022/09/21 10:51:29;;;;;;;4.85;1.10;;;;;;;21.49;36.15;102762.06;5106133;28;20097;-50
2022/09/21 10:54:07;;;;;;;7.65;1.33;;;;;;;21.63;35.93;102778.31;5103329;28;20743;-50
2022/09/21 10:56:53;;;;;;;3.30;1.30;;;;;;;21.74;36.37;102766.34;5097545;28;20051;-42
2022/09/21 10:59:29;;;;;;;4.97;1.23;;;;;;;21.94;36.49;102769.38;5104145;28;20395;-52
2022/09/21 11:02:02;;;;;;;13.57;3.15;;;;;;;22.21;36.53;102778.00;5100247;28;20483;-51
2022/09/21 11:04:44;;;;;;;8.90;2.10;;;;;;;22.25;36.04;102761.28;5102344;28;20403;-51
2022/09/21 11:07:22;;;;;;;8.98;2.13;;;;;;;22.43;36.00;102769.06;5106900;28;20050;-52
2022/09/21 11:10:03;;;;;;;5.82;1.42;;;;;;;22.59;35.76;102773.47;5116633;28;20522;-53
2022/09/21 11:12:48;;;;;;;6.05;1.85;;;;;;;22.49;36.45;102778.28;5101250;28;20051;-51
2022/09/21 11:19:20;;;;;;;7.13;1.58;;;;;;;22.51;35.97;102771.66;5106917;28;20477;-52
2022/09/21 11:21:59;;;;;;;6.60;1.23;;;;;;;22.46;36.46;102760.63;5096707;28;20201;-49
2022/09/21 11:24:44;;;;;;;7.88;2.00;;;;;;;22.44;36.47;102751.88;5116163;28;20068;-51
2022/09/21 11:27:23;;;;;;;5.78;1.67;;;;;;;22.30;35.92;102760.75;5108416;28;20092;-51
2022/09/21 11:30:02;;;;;;;2.15;1.10;;;;;;;21.86;36.69;102750.59;5106072;28;20046;-51
2022/09/21 11:33:05;;;;;;;5.78;1.52;;;;;;;21.52;36.80;102738.38;5109895;28;20068;-49
2022/09/21 11:35:54;;;;;;;8.20;1.10;;;;;;;21.19;36.90;102738.50;5109610;28;20530;-53
2022/09/21 11:38:40;;;;;;;7.40;1.80;;;;;;;21.03;37.58;102754.69;5121098;28;20421;-51
2022/09/21 11:41:32;;;;;;;7.07;1.48;;;;;;;20.86;37.59;102748.50;5103235;28;20057;-50
2022/09/21 11:44:23;;;;;;;8.45;1.30;;;;;;;20.59;37.94;102736.28;5117787;28;20046;-52
2022/09/21 11:47:10;;;;;;;14.85;2.08;;;;;;;20.71;38.11;102750.22;5106954;28;20141;-52
2022/09/21 11:50:06;;;;;;;4.20;1.48;;;;;;;20.79;38.26;102742.16;5104242;28;20575;-52
2022/09/21 11:52:51;;;;;;;9.75;1.60;;;;;;;20.85;38.18;102746.00;5108243;28;20348;-54
2022/09/21 11:55:43;;;;;;;3.70;1.35;;;;;;;20.77;39.43;102727.22;5103448;28;20058;-51
2022/09/21 11:58:27;;;;;;;6.47;1.63;;;;;;;20.85;39.74;102737.94;5104652;28;20523;-51
2022/09/21 12:01:12;;;;;;;3.55;1.13;;;;;;;20.82;40.11;102743.66;5105402;28;21450;-49
2022/09/21 12:04:12;;;;;;;4.10;1.33;;;;;;;20.77;40.21;102738.78;5104316;28;20449;-51
2022/09/21 12:07:00;;;;;;;5.55;1.35;;;;;;;20.87;40.59;102739.44;5099388;28;21857;-51
2022/09/21 12:10:05;;;;;;;5.95;1.45;;;;;;;21.09;40.38;102732.50;5123566;28;20518;-53
2022/09/21 12:12:44;;;;;;;4.30;1.30;;;;;;;21.32;39.33;102731.72;5103983;28;20117;-52
2022/09/21 12:15:24;;;;;;;3.97;1.27;;;;;;;21.38;39.20;102725.69;5101129;28;20447;-50
2022/09/21 12:18:04;;;;;;;11.02;1.75;;;;;;;21.68;38.86;102731.22;5102634;28;20509;-50
2022/09/21 12:20:51;;;;;;;5.35;1.45;;;;;;;21.85;38.78;102725.56;5109462;28;20570;-49
2022/09/21 12:23:34;;;;;;;9.00;1.50;;;;;;;21.87;38.38;102720.03;5112884;28;20474;-52
2022/09/21 12:26:08;;;;;;;2.97;1.02;;;;;;;21.78;38.47;102731.84;5099623;28;20629;-50
2022/09/21 12:28:44;;;;;;;7.03;2.03;;;;;;;21.45;39.32;102710.53;5092157;28;20054;-54
2022/09/21 12:31:23;;;;;;;5.07;1.98;;;;;;;21.29;39.35;102732.09;5104721;28;20463;-42
2022/09/21 12:33:59;;;;;;;5.32;1.77;;;;;;;20.98;40.19;102719.44;5103410;28;20125;-51
2022/09/21 12:36:38;;;;;;;7.15;1.58;;;;;;;20.84;40.75;102721.00;5103763;28;20046;-50
2022/09/21 12:39:18;;;;;;;4.75;1.45;;;;;;;20.60;40.27;102729.09;5100943;28;20129;-48
2022/09/21 12:41:56;;;;;;;5.25;1.85;;;;;;;20.50;41.04;102719.34;5104625;28;20054;-51
2022/09/21 12:44:50;;;;;;;6.32;1.38;;;;;;;20.59;40.90;102720.19;5107487;28;20507;-49